Time;durP1;ratioP1;P1;durP2;ratioP2;P2;SDS_P1;SDS_P2;PMS_P1;PMS_P2;Temp;Humidity;BMP_temperature;BMP_pressure;BME280_temperature;BME280_humidity;BME280_pressure;Samples;Min_cycle;Max_cycle;Signal;HPM_P1;HPM_P2
2022/01/27 00:03:10;;;;;;;32.03;20.88;;;6.20;79.70;;;;;;5074659;28;20032;-40
2022/01/27 00:05:38;;;;;;;33.60;19.98;;;6.20;79.60;;;;;;5074633;28;20020;-40
2022/01/27 00:13:17;;;;;;;31.13;18.92;;;6.20;79.60;;;;;;5074456;28;20043;-40
2022/01/27 00:15:47;;;;;;;33.92;19.23;;;6.20;79.60;;;;;;5074140;28;20476;-40
2022/01/27 00:18:17;;;;;;;31.42;19.00;;;6.20;79.50;;;;;;5074245;28;20143;-41
2022/01/27 00:20:44;;;;;;;33.05;20.40;;;6.20;79.50;;;;;;5074028;28;20017;-40
2022/01/27 00:23:10;;;;;;;33.17;20.13;;;6.20;79.40;;;;;;5072460;28;20017;-41
2022/01/27 00:25:36;;;;;;;32.95;18.95;;;6.20;79.30;;;;;;5073869;28;20025;-41
2022/01/27 00:28:05;;;;;;;29.80;18.85;;;6.20;79.40;;;;;;5072669;28;20478;-40
2022/01/27 00:30:34;;;;;;;30.35;19.13;;;6.20;79.40;;;;;;5073957;28;20048;-40
2022/01/27 00:33:01;;;;;;;27.80;17.25;;;6.20;79.40;;;;;;5073705;28;20142;-40
2022/01/27 00:35:26;;;;;;;29.08;18.15;;;6.20;79.30;;;;;;5073548;28;20079;-41
2022/01/27 00:37:52;;;;;;;25.77;16.27;;;6.20;79.40;;;;;;5073687;28;20048;-41
2022/01/27 00:40:17;;;;;;;26.83;16.40;;;6.20;80.00;;;;;;5073724;28;20028;-41
2022/01/27 00:42:45;;;;;;;29.52;16.48;;;6.20;79.30;;;;;;5073667;28;20021;-41
2022/01/27 00:45:10;;;;;;;28.52;16.52;;;6.20;79.10;;;;;;5073088;28;20025;-41
2022/01/27 00:47:36;;;;;;;27.70;15.93;;;6.20;79.00;;;;;;5073592;28;20392;-42
2022/01/27 00:50:02;;;;;;;23.80;14.77;;;6.30;79.10;;;;;;5073422;28;20435;-39
2022/01/27 00:52:51;;;;;;;25.15;15.77;;;6.30;79.10;;;;;;5073726;28;20031;-41
2022/01/27 00:55:17;;;;;;;27.92;16.50;;;6.30;79.00;;;;;;5073353;28;20020;-41
2022/01/27 01:00:29;;;;;;;28.08;15.15;;;6.30;78.80;;;;;;5073393;28;20033;-41
2022/01/27 01:03:02;;;;;;;25.80;15.48;;;6.30;78.90;;;;;;5073333;28;20074;-41
2022/01/27 01:08:49;;;;;;;23.92;14.20;;;6.20;78.80;;;;;;5073324;28;20035;-41
2022/01/27 01:16:28;;;;;;;25.63;14.77;;;6.30;78.80;;;;;;5073099;28;20389;-41
2022/01/27 01:19:08;;;;;;;22.75;13.93;;;6.30;78.70;;;;;;5073345;28;20605;-42
2022/01/27 01:34:29;;;;;;;28.30;17.02;;;6.40;78.60;;;;;;5072977;28;20110;-41
2022/01/27 01:37:00;;;;;;;29.30;17.13;;;6.30;78.60;;;;;;5073187;28;20554;-41
2022/01/27 01:39:36;;;;;;;26.50;16.13;;;6.30;78.50;;;;;;5072881;28;20024;-41
2022/01/27 01:42:07;;;;;;;24.17;15.63;;;6.30;78.70;;;;;;5072925;28;20024;-40
2022/01/27 01:44:34;;;;;;;29.35;17.23;;;6.30;78.80;;;;;;5072909;28;20043;-40
2022/01/27 01:47:00;;;;;;;25.25;17.02;;;6.30;78.70;;;;;;5072765;28;20039;-40
2022/01/27 01:49:26;;;;;;;30.02;18.13;;;6.30;78.80;;;;;;5072853;28;20107;-40
2022/01/27 01:51:57;;;;;;;28.00;17.23;;;6.30;78.70;;;;;;5072876;28;20024;-40
2022/01/27 01:54:24;;;;;;;25.17;16.17;;;6.30;78.80;;;;;;5072787;28;20476;-40
2022/01/27 01:56:50;;;;;;;26.75;16.17;;;6.20;78.80;;;;;;5074876;28;20024;-40
2022/01/27 01:59:15;;;;;;;28.33;18.15;;;6.20;78.90;;;;;;5076779;28;20029;-39
2022/01/27 02:01:42;;;;;;;28.20;17.00;;;6.20;78.80;;;;;;5076903;28;20099;-39
2022/01/27 02:04:10;;;;;;;30.05;18.63;;;6.20;78.80;;;;;;5076682;28;20021;-40
2022/01/27 02:06:47;;;;;;;30.85;17.95;;;6.20;78.80;;;;;;5076607;28;20025;-40
2022/01/27 02:19:56;;;;;;;26.85;15.18;;;6.20;79.10;;;;;;5076359;28;20067;-40
2022/01/27 02:22:22;;;;;;;24.52;15.90;;;6.20;79.00;;;;;;5076365;28;20529;-40
2022/01/27 02:24:49;;;;;;;24.08;16.08;;;6.20;79.00;;;;;;5076261;28;20589;-40
2022/01/27 02:27:16;;;;;;;27.63;16.17;;;6.30;79.00;;;;;;5076196;28;20471;-40
2022/01/27 02:29:44;;;;;;;25.30;15.57;;;6.30;79.00;;;;;;5076148;28;20534;-40
2022/01/27 02:32:11;;;;;;;25.17;16.02;;;6.30;79.00;;;;;;5076113;28;20024;-40
2022/01/27 02:34:37;;;;;;;26.85;15.90;;;6.30;79.00;;;;;;5075912;28;20076;-39
2022/01/27 02:37:03;;;;;;;26.77;14.77;;;6.30;79.00;;;;;;5076116;28;20024;-41
2022/01/27 02:39:29;;;;;;;26.35;16.48;;;6.30;79.00;;;;;;5076031;28;20029;-42
2022/01/27 02:41:57;;;;;;;24.38;15.43;;;6.30;79.00;;;;;;5075935;28;20016;-40
2022/01/27 02:44:33;;;;;;;24.15;13.85;;;6.30;78.90;;;;;;5076197;28;20029;-41
2022/01/27 02:46:59;;;;;;;25.08;14.85;;;6.40;79.30;;;;;;5075829;28;20487;-41
2022/01/27 02:49:25;;;;;;;27.08;16.30;;;6.30;78.90;;;;;;5074645;28;20025;-39
2022/01/27 02:51:52;;;;;;;28.48;16.30;;;6.30;78.90;;;;;;5075884;28;20056;-40
2022/01/27 02:54:18;;;;;;;28.60;17.30;;;6.30;78.80;;;;;;5075649;28;20043;-41
2022/01/27 02:56:46;;;;;;;24.77;15.43;;;6.30;78.90;;;;;;5075730;28;20103;-40
2022/01/27 02:59:13;;;;;;;31.63;16.95;;;6.30;78.90;;;;;;5075700;28;20019;-39
2022/01/27 03:01:39;;;;;;;27.45;17.02;;;6.30;79.00;;;;;;5075681;28;20063;-40
2022/01/27 03:04:05;;;;;;;30.50;17.70;;;6.30;79.00;;;;;;5075597;28;20418;-39
2022/01/27 03:06:30;;;;;;;34.83;18.70;;;6.20;79.00;;;;;;5075501;28;20028;-40
2022/01/27 03:08:56;;;;;;;28.00;16.80;;;6.20;79.00;;;;;;5075425;28;20025;-40
2022/01/27 03:11:45;;;;;;;29.50;15.98;;;6.20;79.10;;;;;;5075698;28;20503;-40
2022/01/27 03:14:12;;;;;;;25.38;16.40;;;6.20;79.20;;;;;;5075603;28;20521;-41
2022/01/27 03:16:38;;;;;;;24.67;15.77;;;6.20;79.20;;;;;;5075311;28;20063;-39
2022/01/27 03:19:04;;;;;;;24.73;15.70;;;6.20;79.30;;;;;;5075233;28;20056;-41
2022/01/27 03:21:30;;;;;;;24.83;15.32;;;6.30;79.30;;;;;;5075242;28;20032;-40
2022/01/27 03:23:55;;;;;;;25.50;15.07;;;6.30;79.20;;;;;;5075490;28;20024;-40
2022/01/27 03:26:22;;;;;;;26.88;14.75;;;6.30;79.20;;;;;;5073925;28;20024;-41
2022/01/27 03:28:48;;;;;;;28.20;16.25;;;6.30;79.10;;;;;;5075402;28;20027;-41
2022/01/27 03:31:14;;;;;;;26.10;15.93;;;6.40;79.20;;;;;;5075109;28;20484;-41
2022/01/27 03:33:40;;;;;;;24.35;15.35;;;6.40;79.20;;;;;;5074820;28;20025;-39
2022/01/27 03:36:06;;;;;;;23.75;14.68;;;6.40;79.20;;;;;;5074867;28;20112;-41
2022/01/27 03:38:32;;;;;;;27.38;16.60;;;6.40;79.20;;;;;;5074944;28;20117;-42
2022/01/27 03:40:58;;;;;;;25.35;15.00;;;6.40;79.20;;;;;;5074863;28;20032;-40
2022/01/27 03:43:24;;;;;;;24.63;15.50;;;6.40;79.20;;;;;;5074821;28;20017;-41
2022/01/27 03:45:50;;;;;;;27.77;15.38;;;6.40;79.20;;;;;;5074776;28;20103;-41
2022/01/27 03:48:15;;;;;;;24.35;14.82;;;6.40;79.20;;;;;;5074845;28;20032;-41
2022/01/27 03:50:41;;;;;;;24.05;15.82;;;6.40;79.30;;;;;;5074919;28;20384;-41
2022/01/27 03:53:07;;;;;;;25.13;16.20;;;6.40;79.60;;;;;;5074593;28;20078;-41
2022/01/27 03:55:32;;;;;;;24.50;15.45;;;6.40;79.30;;;;;;5074440;28;20028;-41
2022/01/27 03:57:58;;;;;;;27.42;16.73;;;6.40;79.20;;;;;;5074610;28;20024;-41
2022/01/27 04:00:24;;;;;;;27.25;15.98;;;6.40;79.20;;;;;;5074528;28;20025;-41
2022/01/27 04:03:00;;;;;;;23.60;15.68;;;6.40;79.30;;;;;;5074458;28;20020;-41
2022/01/27 04:05:32;;;;;;;26.63;16.60;;;6.40;79.30;;;;;;5074699;28;20392;-41
2022/01/27 04:07:58;;;;;;;24.42;14.75;;;6.40;79.20;;;;;;5073206;28;20039;-41
2022/01/27 04:10:24;;;;;;;25.02;15.85;;;6.40;79.30;;;;;;5074463;28;20021;-41
2022/01/27 04:12:50;;;;;;;25.38;15.52;;;6.40;79.30;;;;;;5072981;28;20025;-41
2022/01/27 04:15:15;;;;;;;25.17;15.63;;;6.40;79.40;;;;;;5074462;28;20025;-41
2022/01/27 04:17:41;;;;;;;27.08;15.13;;;6.40;79.40;;;;;;5074092;28;20101;-41
2022/01/27 04:20:07;;;;;;;29.95;16.95;;;6.40;79.30;;;;;;5073413;28;20098;-42
2022/01/27 04:22:32;;;;;;;26.00;16.50;;;6.50;79.40;;;;;;5074101;28;20017;-41
2022/01/27 04:24:58;;;;;;;26.20;16.05;;;6.50;79.30;;;;;;5074109;28;20024;-41
2022/01/27 04:27:29;;;;;;;22.40;14.02;;;6.50;79.40;;;;;;5074161;28;20472;-42
2022/01/27 04:29:55;;;;;;;25.00;14.75;;;6.50;79.40;;;;;;5074223;28;20024;-41
2022/01/27 04:32:26;;;;;;;26.00;15.23;;;6.40;79.40;;;;;;5073854;28;20537;-40
2022/01/27 04:34:54;;;;;;;25.20;14.50;;;6.50;79.40;;;;;;5073784;28;20519;-41
2022/01/27 04:37:23;;;;;;;29.20;16.85;;;6.50;79.40;;;;;;5074017;28;20023;-41
2022/01/27 04:39:59;;;;;;;21.40;13.48;;;6.50;79.40;;;;;;5073949;28;20048;-40
2022/01/27 04:42:41;;;;;;;27.65;15.35;;;6.50;79.50;;;;;;5073988;28;20515;-40
2022/01/27 04:45:08;;;;;;;23.45;13.55;;;6.50;79.40;;;;;;5073651;28;20021;-40
2022/01/27 04:47:40;;;;;;;24.30;14.32;;;6.50;79.50;;;;;;5073896;28;20043;-41
2022/01/27 04:50:06;;;;;;;23.42;14.00;;;6.50;79.40;;;;;;5073820;28;20030;-41
2022/01/27 04:52:36;;;;;;;24.35;14.60;;;6.50;79.50;;;;;;5073819;28;20387;-41
2022/01/27 04:55:08;;;;;;;26.27;15.70;;;6.50;79.50;;;;;;5073629;28;20027;-40
2022/01/27 04:57:36;;;;;;;24.55;15.13;;;6.60;79.50;;;;;;5073719;28;20048;-40
2022/01/27 05:00:04;;;;;;;21.30;13.10;;;6.50;79.50;;;;;;5072121;28;20020;-40
2022/01/27 05:04:55;;;;;;;23.98;13.48;;;6.60;79.50;;;;;;5073661;28;20067;-41
2022/01/27 05:07:20;;;;;;;24.20;14.50;;;6.50;79.50;;;;;;5073361;28;20468;-41
2022/01/27 05:09:55;;;;;;;29.08;15.88;;;6.50;79.50;;;;;;5073269;28;20031;-40
2022/01/27 05:12:36;;;;;;;22.90;13.52;;;6.50;79.60;;;;;;5073555;28;20391;-41
2022/01/27 05:15:02;;;;;;;25.27;16.17;;;6.50;79.70;;;;;;5071848;28;20028;-41
2022/01/27 05:17:28;;;;;;;27.15;14.40;;;6.50;79.70;;;;;;5073513;28;20032;-41
2022/01/27 05:19:54;;;;;;;26.80;14.80;;;6.50;79.80;;;;;;5073228;28;20036;-40
2022/01/27 05:22:19;;;;;;;23.50;13.63;;;6.50;79.90;;;;;;5073263;28;20024;-41
2022/01/27 05:24:45;;;;;;;25.42;14.65;;;6.50;79.90;;;;;;5073097;28;20059;-41
2022/01/27 05:27:10;;;;;;;27.65;15.43;;;6.50;79.90;;;;;;5073122;28;20491;-40
2022/01/27 05:29:36;;;;;;;24.30;13.52;;;6.50;80.00;;;;;;5073072;28;20354;-40
2022/01/27 05:32:02;;;;;;;24.80;14.15;;;6.50;80.10;;;;;;5073206;28;20048;-41
2022/01/27 05:34:28;;;;;;;25.13;13.60;;;6.50;80.10;;;;;;5072738;28;20048;-37
2022/01/27 05:36:53;;;;;;;26.30;13.80;;;6.50;80.10;;;;;;5073065;28;20021;-42
2022/01/27 05:39:19;;;;;;;23.05;13.40;;;6.50;80.20;;;;;;5073066;28;20023;-42
2022/01/27 05:41:45;;;;;;;24.00;13.88;;;6.50;80.30;;;;;;5072927;28;20058;-41
2022/01/27 05:44:10;;;;;;;24.00;13.55;;;6.60;80.40;;;;;;5072893;28;20059;-40
2022/01/27 05:46:36;;;;;;;25.15;13.23;;;6.60;80.40;;;;;;5072857;28;20016;-40
2022/01/27 05:49:02;;;;;;;24.05;14.13;;;6.60;80.50;;;;;;5072841;28;20021;-40
2022/01/27 05:51:27;;;;;;;28.38;14.98;;;6.60;80.60;;;;;;5071916;28;20119;-40
2022/01/27 05:53:53;;;;;;;24.73;14.43;;;6.60;80.70;;;;;;5072829;28;20020;-40
2022/01/27 05:56:19;;;;;;;22.30;12.82;;;6.50;80.80;;;;;;5072744;28;20028;-41
2022/01/27 05:58:44;;;;;;;22.33;12.88;;;6.50;80.90;;;;;;5072853;28;20025;-40
2022/01/27 06:01:10;;;;;;;22.27;13.30;;;6.50;81.00;;;;;;5073026;28;20468;-40
2022/01/27 06:03:36;;;;;;;23.52;14.73;;;6.60;81.30;;;;;;5072972;28;20009;-41
2022/01/27 06:06:02;;;;;;;23.13;13.60;;;6.50;81.60;;;;;;5071440;28;20020;-41
2022/01/27 06:08:30;;;;;;;29.17;14.52;;;6.50;81.80;;;;;;5072627;28;20094;-41
2022/01/27 06:10:56;;;;;;;26.50;15.23;;;6.50;81.90;;;;;;5072850;28;20024;-41
2022/01/27 06:13:21;;;;;;;25.50;13.45;;;6.60;82.40;;;;;;5072669;28;20079;-40
2022/01/27 06:15:48;;;;;;;22.67;12.55;;;6.50;82.40;;;;;;5071337;28;20056;-41
2022/01/27 06:18:14;;;;;;;25.58;13.93;;;6.50;82.50;;;;;;5072718;28;20024;-40
2022/01/27 06:20:43;;;;;;;28.02;13.80;;;6.50;82.60;;;;;;5072592;28;20020;-40
2022/01/27 06:23:09;;;;;;;23.25;12.15;;;6.50;82.80;;;;;;5071696;28;20480;-41
2022/01/27 06:25:35;;;;;;;19.13;11.73;;;6.50;82.70;;;;;;5072440;28;20046;-42
2022/01/27 06:28:00;;;;;;;21.85;11.75;;;6.60;82.80;;;;;;5072701;28;20488;-41
2022/01/27 06:30:26;;;;;;;23.88;12.50;;;6.60;83.00;;;;;;5072507;28;20443;-40
2022/01/27 06:32:52;;;;;;;22.17;11.15;;;6.60;83.10;;;;;;5072414;28;20074;-41
2022/01/27 06:35:18;;;;;;;20.75;11.18;;;6.70;83.20;;;;;;5072233;28;20048;-40
2022/01/27 06:37:47;;;;;;;19.67;11.40;;;6.70;83.20;;;;;;5072668;28;20124;-40
2022/01/27 06:40:14;;;;;;;22.95;10.63;;;6.70;83.50;;;;;;5072386;28;20024;-40
2022/01/27 06:42:40;;;;;;;19.00;10.68;;;6.70;83.40;;;;;;5073985;28;20048;-39
2022/01/27 06:45:07;;;;;;;22.45;12.27;;;6.80;83.50;;;;;;5075955;28;20056;-40
2022/01/27 06:47:32;;;;;;;22.90;12.07;;;6.80;83.80;;;;;;5075924;28;20035;-40
2022/01/27 06:49:58;;;;;;;22.00;11.27;;;6.80;83.80;;;;;;5075804;28;20484;-40
2022/01/27 06:52:27;;;;;;;20.27;11.45;;;6.80;84.10;;;;;;5076089;28;20087;-41
2022/01/27 06:54:54;;;;;;;25.98;11.55;;;6.90;84.20;;;;;;5075948;28;20505;-40
2022/01/27 06:57:20;;;;;;;22.50;11.40;;;6.90;84.40;;;;;;5076100;28;20380;-40
2022/01/27 06:59:46;;;;;;;22.05;11.90;;;6.90;84.40;;;;;;5075886;28;20021;-40
2022/01/27 07:02:11;;;;;;;26.88;12.73;;;6.90;84.40;;;;;;5075625;28;20027;-41
2022/01/27 07:04:37;;;;;;;26.08;12.35;;;7.00;85.40;;;;;;5075459;28;20029;-39
2022/01/27 07:07:03;;;;;;;21.73;12.00;;;6.90;84.80;;;;;;5075810;28;20089;-41
2022/01/27 07:09:29;;;;;;;21.92;11.15;;;6.90;85.20;;;;;;5075395;28;20029;-39
2022/01/27 07:11:54;;;;;;;25.10;13.00;;;6.90;85.10;;;;;;5075297;28;20033;-41
2022/01/27 07:14:20;;;;;;;23.50;11.57;;;7.00;85.40;;;;;;5075272;28;20040;-41
2022/01/27 07:16:45;;;;;;;25.70;12.30;;;7.00;85.20;;;;;;5075292;28;20017;-40
2022/01/27 07:19:11;;;;;;;22.95;11.55;;;7.00;85.20;;;;;;5075474;28;20362;-40
2022/01/27 07:21:37;;;;;;;23.83;11.65;;;7.00;85.40;;;;;;5075242;28;20380;-40
2022/01/27 07:24:02;;;;;;;30.38;13.38;;;7.00;85.60;;;;;;5075179;28;20028;-41
2022/01/27 07:26:28;;;;;;;25.70;13.30;;;7.00;86.30;;;;;;5075189;28;20114;-40
2022/01/27 07:28:54;;;;;;;23.83;12.95;;;6.90;86.80;;;;;;5075407;28;20053;-41
2022/01/27 07:31:21;;;;;;;29.23;13.35;;;6.90;87.20;;;;;;5073840;28;20028;-38
2022/01/27 07:33:48;;;;;;;27.27;12.93;;;6.80;87.40;;;;;;5074885;28;20024;-41
2022/01/27 07:36:17;;;;;;;21.38;11.98;;;6.70;87.60;;;;;;5075192;28;20445;-41
2022/01/27 07:38:44;;;;;;;26.48;12.70;;;6.70;87.80;;;;;;5074871;28;20489;-40
2022/01/27 07:41:12;;;;;;;26.90;14.50;;;6.70;87.90;;;;;;5074967;28;20490;-40
2022/01/27 07:43:39;;;;;;;29.10;13.70;;;6.70;88.50;;;;;;5074826;28;20444;-41
2022/01/27 07:46:06;;;;;;;28.63;13.57;;;6.70;88.60;;;;;;5074878;28;20459;-41
2022/01/27 07:48:32;;;;;;;23.08;14.02;;;6.60;89.60;;;;;;5074883;28;20039;-41
2022/01/27 07:50:57;;;;;;;26.67;14.43;;;6.60;89.20;;;;;;5074794;28;20108;-41
2022/01/27 07:53:23;;;;;;;22.83;12.02;;;6.60;89.60;;;;;;5073419;28;20036;-41
2022/01/27 07:55:49;;;;;;;28.98;15.02;;;6.60;89.60;;;;;;5074630;28;20035;-40
2022/01/27 07:58:14;;;;;;;27.75;14.30;;;6.70;90.00;;;;;;5074592;28;20438;-41
2022/01/27 08:00:40;;;;;;;25.58;13.63;;;6.70;90.00;;;;;;5074422;28;20013;-40
2022/01/27 08:03:06;;;;;;;24.00;13.13;;;6.60;90.00;;;;;;5074481;28;20020;-39
2022/01/27 08:05:32;;;;;;;25.33;14.10;;;6.70;90.20;;;;;;5074318;28;20123;-39
2022/01/27 08:07:58;;;;;;;29.48;15.23;;;6.60;90.20;;;;;;5074379;28;20095;-40
2022/01/27 08:10:25;;;;;;;27.98;13.63;;;6.60;90.30;;;;;;5074575;28;20021;-39
2022/01/27 08:12:50;;;;;;;31.27;14.95;;;6.60;90.40;;;;;;5074142;28;20096;-37
2022/01/27 08:15:19;;;;;;;22.00;12.38;;;6.60;90.50;;;;;;5074107;28;20590;-39
2022/01/27 08:17:47;;;;;;;24.08;12.38;;;6.60;90.50;;;;;;5074032;28;20025;-40
2022/01/27 08:20:13;;;;;;;22.13;12.50;;;6.60;90.50;;;;;;5074034;28;20491;-39
2022/01/27 08:22:39;;;;;;;24.05;11.90;;;6.60;90.50;;;;;;5073978;28;20025;-40
2022/01/27 08:25:05;;;;;;;22.60;13.25;;;6.70;90.50;;;;;;5073962;28;20074;-39
2022/01/27 08:27:32;;;;;;;30.02;12.95;;;6.70;90.60;;;;;;5073789;28;20070;-38
2022/01/27 08:30:03;;;;;;;25.33;14.13;;;6.70;90.60;;;;;;5073855;28;20027;-39
2022/01/27 08:32:43;;;;;;;20.73;11.95;;;6.70;90.70;;;;;;5074004;28;20472;-38
2022/01/27 08:35:10;;;;;;;22.15;11.95;;;6.70;90.60;;;;;;5073692;28;20047;-39
2022/01/27 08:37:36;;;;;;;19.52;11.85;;;6.70;90.70;;;;;;5073646;28;20033;-38
2022/01/27 08:40:02;;;;;;;20.63;12.50;;;6.70;90.70;;;;;;5073462;28;20095;-38
2022/01/27 08:42:28;;;;;;;23.02;13.57;;;6.70;90.80;;;;;;5073597;28;20071;-38
2022/01/27 08:44:53;;;;;;;22.02;12.10;;;6.70;90.80;;;;;;5072298;28;20480;-39
2022/01/27 08:47:19;;;;;;;18.85;11.93;;;6.70;90.70;;;;;;5073653;28;20392;-38
2022/01/27 08:49:46;;;;;;;22.92;12.18;;;6.70;90.80;;;;;;5073520;28;20115;-39
2022/01/27 08:52:12;;;;;;;27.92;14.63;;;6.70;90.80;;;;;;5073785;28;20035;-39
2022/01/27 08:54:38;;;;;;;24.33;13.40;;;6.70;91.00;;;;;;5073314;28;20399;-39
2022/01/27 08:57:04;;;;;;;25.20;12.88;;;6.70;91.00;;;;;;5073718;28;20024;-39
2022/01/27 08:59:29;;;;;;;26.40;13.68;;;6.70;91.00;;;;;;5073266;28;20029;-37
2022/01/27 09:01:55;;;;;;;21.15;12.27;;;6.70;91.00;;;;;;5073300;28;20028;-38
2022/01/27 09:04:21;;;;;;;21.98;12.63;;;6.70;91.00;;;;;;5073172;28;20449;-38
2022/01/27 09:06:46;;;;;;;22.05;12.00;;;6.70;91.10;;;;;;5073084;28;20020;-38
2022/01/27 09:09:12;;;;;;;20.45;12.45;;;6.80;91.10;;;;;;5073271;28;20016;-38
2022/01/27 09:11:39;;;;;;;21.45;12.00;;;6.80;91.10;;;;;;5073129;28;20090;-38
2022/01/27 09:14:05;;;;;;;19.35;11.02;;;6.80;91.00;;;;;;5073135;28;20024;-47
2022/01/27 09:16:31;;;;;;;23.35;12.65;;;6.80;91.00;;;;;;5072970;28;20411;-37
2022/01/27 09:19:00;;;;;;;25.17;12.70;;;6.80;91.00;;;;;;5073409;28;20055;-38
2022/01/27 09:21:27;;;;;;;19.63;11.63;;;6.80;91.10;;;;;;5073479;28;20383;-38
2022/01/27 09:23:54;;;;;;;23.20;12.00;;;6.90;91.10;;;;;;5072958;28;20052;-38
2022/01/27 09:29:05;;;;;;;17.48;9.98;;;6.90;91.20;;;;;;5073031;28;20055;-40
2022/01/27 09:31:31;;;;;;;18.65;10.65;;;6.90;91.10;;;;;;5073157;28;20020;-38
2022/01/27 09:33:57;;;;;;;17.70;10.00;;;7.00;91.10;;;;;;5072943;28;20034;-38
2022/01/27 09:36:22;;;;;;;15.30;9.30;;;7.00;91.40;;;;;;5072834;28;20111;-39
2022/01/27 09:38:48;;;;;;;21.88;10.77;;;7.00;91.10;;;;;;5071633;28;20020;-37
2022/01/27 09:41:19;;;;;;;16.75;9.57;;;7.00;91.20;;;;;;5073061;28;20043;-38
2022/01/27 09:43:46;;;;;;;17.13;10.98;;;7.00;91.20;;;;;;5073102;28;20104;-39
2022/01/27 09:46:15;;;;;;;16.38;10.18;;;7.00;91.10;;;;;;5072954;28;20024;-39
2022/01/27 09:48:44;;;;;;;18.13;10.35;;;7.00;91.20;;;;;;5072746;28;20109;-39
2022/01/27 09:51:26;;;;;;;13.93;9.00;;;7.00;91.20;;;;;;5073076;28;20038;-38
2022/01/27 09:53:55;;;;;;;15.13;10.10;;;7.00;91.20;;;;;;5072658;28;20024;-39
2022/01/27 09:56:23;;;;;;;22.30;12.00;;;7.10;91.20;;;;;;5072619;28;20047;-39
2022/01/27 09:58:49;;;;;;;19.58;10.15;;;7.10;91.30;;;;;;5072658;28;20025;-38
2022/01/27 10:01:15;;;;;;;17.00;9.93;;;7.10;91.30;;;;;;5072908;28;20052;-38
2022/01/27 10:03:53;;;;;;;14.88;9.25;;;7.10;91.30;;;;;;5072706;28;20021;-38
2022/01/27 10:06:19;;;;;;;14.88;9.65;;;7.10;91.60;;;;;;5072859;28;20028;-38
2022/01/27 10:08:44;;;;;;;14.77;9.20;;;7.10;91.30;;;;;;5071511;28;20102;-39
2022/01/27 10:11:18;;;;;;;18.30;9.88;;;7.20;91.30;;;;;;5072663;28;20040;-39
2022/01/27 10:13:46;;;;;;;14.88;9.88;;;7.20;91.60;;;;;;5072582;28;20358;-39
2022/01/27 10:16:36;;;;;;;15.02;9.45;;;7.20;91.30;;;;;;5072793;28;20029;-39
2022/01/27 10:19:09;;;;;;;14.82;9.23;;;7.20;91.30;;;;;;5076675;28;20515;-38
2022/01/27 10:21:35;;;;;;;;;;;7.20;91.30;;;;;;5076853;28;20036;-38
2022/01/27 10:24:18;;;;;;;15.05;8.45;;;7.20;91.30;;;;;;5076367;28;19904;-38
2022/01/27 10:26:52;;;;;;;12.20;7.28;;;7.30;91.30;;;;;;5076572;28;20333;-38
2022/01/27 10:29:30;;;;;;;12.90;8.07;;;7.30;91.30;;;;;;5074982;28;20012;-39
2022/01/27 10:32:06;;;;;;;11.68;6.97;;;7.40;91.30;;;;;;5076124;28;20025;-39
2022/01/27 10:34:53;;;;;;;9.32;6.70;;;7.40;91.30;;;;;;5075867;28;20076;-41
2022/01/27 10:37:19;;;;;;;11.70;8.20;;;7.40;91.20;;;;;;5076037;28;20056;-39
2022/01/27 10:39:48;;;;;;;9.90;7.15;;;7.50;91.30;;;;;;5075994;28;20031;-38
2022/01/27 10:42:14;;;;;;;7.97;6.32;;;7.50;91.30;;;;;;5076011;28;20074;-39
2022/01/27 10:44:46;;;;;;;9.38;6.95;;;7.50;91.30;;;;;;5075975;28;20025;-37
2022/01/27 10:47:22;;;;;;;8.57;5.72;;;7.50;91.40;;;;;;5075907;28;20028;-38
2022/01/27 10:49:56;;;;;;;9.45;6.50;;;7.50;91.40;;;;;;5075865;28;20016;-38
2022/01/27 10:52:46;;;;;;;8.98;6.30;;;7.50;91.40;;;;;;5075774;28;20021;-39
2022/01/27 10:55:18;;;;;;;9.35;6.85;;;7.60;91.60;;;;;;5075703;28;20033;-39
2022/01/27 10:57:50;;;;;;;9.77;6.32;;;7.60;91.40;;;;;;5075641;28;20507;-38
2022/01/27 11:00:18;;;;;;;9.98;7.63;;;7.70;91.40;;;;;;5075783;28;20047;-38
2022/01/27 11:02:52;;;;;;;13.30;8.35;;;7.70;91.40;;;;;;5075610;28;20024;-38
2022/01/27 11:05:23;;;;;;;10.80;7.43;;;7.70;91.40;;;;;;5075654;28;20150;-39
2022/01/27 11:07:49;;;;;;;9.68;7.65;;;7.70;91.40;;;;;;5075564;28;20032;-40
2022/01/27 11:10:16;;;;;;;9.25;7.05;;;7.70;91.40;;;;;;5075484;28;20045;-39
2022/01/27 11:12:43;;;;;;;11.15;8.10;;;7.80;91.40;;;;;;5075694;28;20385;-40
2022/01/27 11:15:14;;;;;;;11.57;7.63;;;7.80;91.50;;;;;;5075628;28;20025;-43
2022/01/27 11:17:41;;;;;;;12.15;7.85;;;7.80;91.50;;;;;;5057773;28;20104;-39
2022/01/27 11:28:02;;;;;;;16.50;10.07;;;7.90;91.40;;;;;;5075182;28;20025;-40
2022/01/27 11:30:52;;;;;;;15.73;8.90;;;8.00;91.50;;;;;;5075438;28;20403;-39
2022/01/27 11:33:18;;;;;;;13.90;8.68;;;8.00;91.40;;;;;;5075033;28;20104;-38
2022/01/27 11:35:44;;;;;;;13.40;9.27;;;8.00;91.40;;;;;;5075027;28;20127;-38
2022/01/27 11:38:11;;;;;;;12.95;9.32;;;8.10;91.70;;;;;;5075095;28;20028;-36
2022/01/27 11:40:40;;;;;;;15.82;9.38;;;8.10;91.40;;;;;;5074787;28;20085;-36
2022/01/27 11:43:14;;;;;;;14.05;9.70;;;8.10;91.40;;;;;;5075052;28;20495;-35
2022/01/27 11:45:43;;;;;;;16.15;10.02;;;8.20;91.40;;;;;;5075111;28;20016;-35
2022/01/27 11:48:16;;;;;;;14.77;9.77;;;8.20;91.40;;;;;;5075030;28;20032;-37
2022/01/27 11:53:40;;;;;;;14.80;9.50;;;8.20;91.40;;;;;;5074994;28;20262;-36
2022/01/27 11:56:27;;;;;;;15.07;9.82;;;8.30;91.40;;;;;;5074791;28;20020;-36
2022/01/27 11:58:59;;;;;;;18.20;10.27;;;8.30;91.40;;;;;;5074559;28;20028;-36
2022/01/27 12:01:25;;;;;;;22.10;10.88;;;8.30;91.40;;;;;;5074614;28;20046;-36
2022/01/27 12:04:06;;;;;;;21.42;12.32;;;8.30;91.40;;;;;;5074780;28;20032;-36
2022/01/27 12:06:39;;;;;;;21.77;11.25;;;8.30;91.40;;;;;;5074188;28;20031;-36
2022/01/27 12:09:17;;;;;;;18.15;10.48;;;8.30;91.50;;;;;;5074455;28;20020;-37
2022/01/27 12:11:49;;;;;;;16.48;10.68;;;8.40;91.50;;;;;;5074383;28;20473;-36
2022/01/27 12:14:18;;;;;;;15.35;9.05;;;8.40;91.50;;;;;;5074570;28;20499;-36
2022/01/27 12:19:15;;;;;;;18.10;11.20;;;8.40;91.40;;;;;;5074121;28;20503;-36
2022/01/27 12:21:51;;;;;;;17.30;10.23;;;8.40;91.40;;;;;;5072847;28;20052;-37
2022/01/27 12:24:28;;;;;;;19.27;10.73;;;8.40;91.50;;;;;;5074117;28;20381;-38
2022/01/27 12:27:07;;;;;;;18.35;10.25;;;8.40;91.50;;;;;;5074285;28;20036;-36
2022/01/27 12:29:39;;;;;;;16.23;10.30;;;8.40;91.50;;;;;;5073959;28;20051;-37
2022/01/27 12:32:17;;;;;;;16.42;11.18;;;8.40;91.50;;;;;;5073842;28;20028;-36
2022/01/27 12:34:52;;;;;;;15.45;9.73;;;8.50;91.50;;;;;;5073638;28;20076;-36
2022/01/27 12:37:23;;;;;;;13.07;8.70;;;8.40;91.50;;;;;;5074127;28;20047;-36
2022/01/27 12:39:55;;;;;;;13.40;8.85;;;8.50;91.50;;;;;;5071833;28;20016;-36
2022/01/27 12:42:26;;;;;;;12.52;8.45;;;8.50;91.40;;;;;;5073885;28;20539;-36
2022/01/27 12:45:02;;;;;;;14.02;9.50;;;8.50;91.40;;;;;;5074008;28;20024;-36
2022/01/27 12:47:30;;;;;;;12.98;8.38;;;8.50;91.40;;;;;;5073929;28;20043;-35
2022/01/27 12:50:06;;;;;;;16.10;8.75;;;8.60;91.50;;;;;;5073910;28;20519;-37
2022/01/27 12:52:37;;;;;;;17.42;9.43;;;8.60;91.40;;;;;;5073512;28;20031;-36
2022/01/27 12:55:04;;;;;;;18.13;8.55;;;8.60;91.40;;;;;;5073447;28;20024;-36
2022/01/27 12:57:32;;;;;;;11.90;8.13;;;8.60;91.50;;;;;;5073751;28;20020;-35
2022/01/27 12:59:59;;;;;;;12.27;8.00;;;8.60;91.50;;;;;;5073796;28;20017;-36
2022/01/27 13:02:26;;;;;;;10.27;7.50;;;8.70;91.50;;;;;;5073424;28;20563;-38
2022/01/27 13:04:59;;;;;;;14.57;7.80;;;8.80;91.50;;;;;;5073600;28;20042;-36
2022/01/27 13:07:26;;;;;;;15.25;8.48;;;8.80;91.40;;;;;;5073532;28;20493;-36
2022/01/27 13:10:00;;;;;;;18.13;9.15;;;8.90;91.40;;;;;;5073574;28;20542;-36
2022/01/27 13:12:32;;;;;;;15.88;7.50;;;8.90;91.40;;;;;;5073529;28;20024;-36
2022/01/27 13:15:06;;;;;;;17.67;8.10;;;8.90;91.30;;;;;;5073514;28;20572;-35
2022/01/27 13:17:47;;;;;;;12.55;7.38;;;9.00;91.40;;;;;;5073384;28;20538;-35
2022/01/27 13:20:26;;;;;;;15.13;7.20;;;9.00;91.30;;;;;;5073477;28;20484;-36
2022/01/27 13:23:03;;;;;;;11.93;6.82;;;9.10;91.30;;;;;;5073477;28;20476;-36
2022/01/27 13:25:53;;;;;;;13.23;7.07;;;9.00;91.20;;;;;;5073404;28;20435;-36
2022/01/27 13:28:25;;;;;;;13.77;6.60;;;9.10;91.20;;;;;;5073386;28;20052;-37
2022/01/27 13:31:12;;;;;;;10.80;6.47;;;9.10;91.20;;;;;;5073155;28;20427;-36
2022/01/27 13:33:41;;;;;;;10.50;6.63;;;9.10;91.20;;;;;;5073015;28;20510;-34
2022/01/27 13:36:15;;;;;;;16.85;6.80;;;9.20;91.20;;;;;;5073045;28;20029;-38
2022/01/27 13:41:45;;;;;;;10.13;5.40;;;9.30;91.10;;;;;;5051590;28;20028;-36
2022/01/27 13:44:20;;;;;;;13.45;5.80;;;9.30;91.00;;;;;;5073243;28;20380;-36
2022/01/27 13:46:49;;;;;;;11.23;5.60;;;9.30;91.00;;;;;;5072963;28;20032;-36
2022/01/27 13:49:25;;;;;;;11.13;5.03;;;9.40;91.00;;;;;;5072971;28;20024;-37
2022/01/27 13:51:58;;;;;;;10.27;4.60;;;9.40;90.90;;;;;;5075133;28;20103;-35